Time;durP1;ratioP1;P1;durP2;ratioP2;P2;SDS_P1;SDS_P2;PMS_P1;PMS_P2;Temp;Humidity;BMP_temperature;BMP_pressure;BME280_temperature;BME280_humidity;BME280_pressure;Samples;Min_cycle;Max_cycle;Signal;HPM_P1;HPM_P2
2022/08/27 00:03:21;;;;;;;5.10;0.95;;;;;;;17.18;100.00;101616.09;10370109;28;20042;-81
2022/08/27 00:08:21;;;;;;;3.13;0.88;;;;;;;17.29;100.00;101626.13;10345075;28;20065;-81
2022/08/27 00:13:22;;;;;;;5.13;0.70;;;;;;;17.18;100.00;101599.41;10373468;28;20053;-82
2022/08/27 00:18:22;;;;;;;6.75;0.82;;;;;;;17.30;100.00;101616.63;10397685;28;20040;-80
2022/08/27 00:23:23;;;;;;;2.58;0.68;;;;;;;17.31;100.00;101609.97;10411485;28;20041;-81
2022/08/27 00:28:25;;;;;;;5.07;0.85;;;;;;;17.13;100.00;101592.75;10389086;28;20458;-81
2022/08/27 00:33:25;;;;;;;3.28;0.90;;;;;;;17.22;100.00;101611.66;10379520;28;20042;-81
2022/08/27 00:38:26;;;;;;;7.18;1.50;;;;;;;17.16;100.00;101616.41;10340082;28;20030;-81
2022/08/27 00:43:30;;;;;;;3.38;0.70;;;;;;;17.08;100.00;101601.13;10389036;28;20038;-81
2022/08/27 00:48:32;;;;;;;5.65;1.83;;;;;;;16.90;100.00;101593.34;10363596;28;20048;-81
2022/08/27 00:53:32;;;;;;;6.15;1.83;;;;;;;16.79;100.00;101602.78;10379090;28;20038;-80
2022/08/27 00:58:36;;;;;;;4.00;0.80;;;;;;;16.69;100.00;101609.19;10369755;28;20034;-81
2022/08/27 01:03:36;;;;;;;5.97;0.90;;;;;;;16.59;100.00;101610.00;10405070;28;20511;-81
2022/08/27 01:08:40;;;;;;;9.15;1.73;;;;;;;16.57;100.00;101606.66;10363508;28;20057;-80
2022/08/27 01:13:40;;;;;;;5.05;1.20;;;;;;;16.59;100.00;101614.72;10401644;28;20044;-80
2022/08/27 01:18:41;;;;;;;4.72;1.25;;;;;;;16.53;100.00;101611.94;10420262;28;20038;-80
2022/08/27 01:24:02;;;;;;;4.25;0.93;;;;;;;16.39;100.00;101609.97;10426223;28;20515;-81
2022/08/27 01:29:03;;;;;;;2.22;1.05;;;;;;;16.10;100.00;101585.47;10419938;28;20485;-82
2022/08/27 01:34:04;;;;;;;5.80;1.88;;;;;;;16.03;100.00;101601.56;10367056;28;20049;-80
2022/08/27 01:39:04;;;;;;;3.78;1.33;;;;;;;15.92;100.00;101607.09;10384470;28;20048;-82
2022/08/27 01:44:05;;;;;;;10.32;1.90;;;;;;;15.71;100.00;101594.22;10419979;28;20113;-81
2022/08/27 01:49:05;;;;;;;7.80;1.50;;;;;;;15.59;100.00;101585.28;10417910;28;20044;-80
2022/08/27 01:54:06;;;;;;;5.13;1.40;;;;;;;15.72;100.00;101613.38;10434009;28;20040;-80
2022/08/27 01:59:06;;;;;;;3.13;1.10;;;;;;;15.80;100.00;101620.38;10417280;28;20037;-81
2022/08/27 02:04:07;;;;;;;9.30;1.10;;;;;;;15.84;100.00;101610.38;10386858;28;20033;-82
2022/08/27 02:09:07;;;;;;;4.05;1.40;;;;;;;15.92;100.00;101618.19;10394256;28;20065;-76
2022/08/27 02:14:08;;;;;;;6.55;1.50;;;;;;;15.91;100.00;101604.56;10361585;28;21013;-83
2022/08/27 02:19:08;;;;;;;8.05;1.27;;;;;;;16.06;100.00;101618.53;10360177;28;20045;-82
2022/08/27 02:24:09;;;;;;;6.85;1.17;;;;;;;16.07;100.00;101605.47;10360733;28;20061;-82
2022/08/27 02:29:09;;;;;;;4.78;1.52;;;;;;;16.23;100.00;101621.06;10377168;28;20084;-81
2022/08/27 02:34:10;;;;;;;5.43;1.10;;;;;;;15.98;100.00;101565.44;10385287;28;20029;-80
2022/08/27 02:39:10;;;;;;;6.47;1.30;;;;;;;16.03;100.00;101557.13;10450818;28;20044;-81
2022/08/27 02:44:11;;;;;;;5.30;1.52;;;;;;;16.42;100.00;101615.00;10416230;28;20063;-81
2022/08/27 02:49:14;;;;;;;8.02;1.83;;;;;;;16.38;100.00;101602.75;10393163;28;20046;-82
2022/08/27 02:54:14;;;;;;;5.50;1.10;;;;;;;16.46;100.00;101610.56;10359503;28;20048;-82
2022/08/27 02:59:15;;;;;;;6.57;1.13;;;;;;;16.47;100.00;101607.47;10375831;28;20045;-81
2022/08/27 03:04:18;;;;;;;7.75;1.30;;;;;;;16.42;100.00;101599.16;10378807;28;20102;-81
2022/08/27 03:09:19;;;;;;;5.18;1.55;;;;;;;16.50;100.00;101606.13;10413230;28;20045;-81
2022/08/27 03:14:19;;;;;;;7.00;1.38;;;;;;;16.52;100.00;101615.00;10399235;28;20084;-83
2022/08/27 03:19:20;;;;;;;6.72;1.45;;;;;;;16.52;100.00;101607.50;10430315;28;20057;-74
2022/08/27 03:24:20;;;;;;;9.02;1.40;;;;;;;16.56;100.00;101610.56;10432568;28;20570;-81
2022/08/27 03:29:21;;;;;;;3.55;1.40;;;;;;;16.42;100.00;101593.59;10399682;28;20037;-81
2022/08/27 03:34:21;;;;;;;8.10;1.30;;;;;;;16.47;100.00;101609.44;10384250;28;20041;-81
2022/08/27 03:39:22;;;;;;;9.30;2.13;;;;;;;16.52;100.00;101615.00;10390096;28;20057;-81
2022/08/27 03:44:23;;;;;;;5.53;1.35;;;;;;;16.41;100.00;101596.63;10373451;28;20045;-81
2022/08/27 03:49:23;;;;;;;8.18;1.90;;;;;;;16.51;100.00;101619.72;10374109;28;20057;-82
2022/08/27 03:54:24;;;;;;;6.93;1.13;;;;;;;16.41;100.00;101614.13;10400147;28;20092;-81
2022/08/27 03:59:24;;;;;;;5.15;1.60;;;;;;;16.16;100.00;101595.47;10414717;28;20037;-80
2022/08/27 04:04:25;;;;;;;7.38;1.30;;;;;;;16.09;100.00;101611.59;10399022;28;20036;-80
2022/08/27 04:09:25;;;;;;;7.20;1.27;;;;;;;15.97;100.00;101602.66;10398339;28;20042;-81
2022/08/27 04:14:26;;;;;;;5.18;1.48;;;;;;;16.03;100.00;101596.84;10432624;28;20048;-81
2022/08/27 04:19:29;;;;;;;6.80;1.50;;;;;;;16.05;100.00;101600.19;10429543;28;20041;-82
2022/08/27 04:24:30;;;;;;;5.90;1.80;;;;;;;16.01;100.00;101589.91;10397226;28;20455;-82
2022/08/27 04:29:31;;;;;;;5.70;1.55;;;;;;;15.94;100.00;101593.75;10484879;28;20037;-81
2022/08/27 04:34:32;;;;;;;9.52;1.50;;;;;;;15.75;100.00;101578.72;10438905;28;20033;-81
2022/08/27 04:39:32;;;;;;;4.53;1.60;;;;;;;15.67;100.00;101582.00;10436920;28;20041;-81
2022/08/27 04:44:34;;;;;;;7.13;1.40;;;;;;;15.62;100.00;101591.09;10436233;28;20137;-81
2022/08/27 04:49:34;;;;;;;8.55;1.88;;;;;;;15.47;100.00;101589.09;10420678;28;20044;-81
2022/08/27 04:54:35;;;;;;;4.82;1.60;;;;;;;15.28;100.00;101593.44;10419859;28;20676;-81
2022/08/27 04:59:35;;;;;;;7.22;2.30;;;;;;;15.28;100.00;101604.53;10421402;28;20045;-81
2022/08/27 05:04:38;;;;;;;5.22;1.30;;;;;;;15.23;100.00;101597.00;10420513;28;20053;-81
2022/08/27 05:09:39;;;;;;;4.88;1.80;;;;;;;15.24;100.00;101600.63;10453719;28;20037;-81
2022/08/27 05:14:39;;;;;;;6.28;1.70;;;;;;;15.37;100.00;101602.91;10414452;28;20030;-82
2022/08/27 05:19:40;;;;;;;3.95;1.23;;;;;;;15.53;100.00;101621.31;10340718;28;20046;-81
2022/08/27 05:24:40;;;;;;;5.85;1.40;;;;;;;15.72;100.00;101613.38;10367482;28;20155;-82
2022/08/27 05:29:41;;;;;;;3.55;1.90;;;;;;;15.87;100.00;101606.22;10379889;28;20072;-81
2022/08/27 05:34:41;;;;;;;3.38;1.40;;;;;;;15.93;100.00;101614.28;10380048;28;20053;-82
2022/08/27 05:39:42;;;;;;;6.10;1.45;;;;;;;15.82;100.00;101607.06;10395969;28;20060;-82
2022/08/27 05:44:42;;;;;;;6.75;1.63;;;;;;;15.79;100.00;101613.13;10357449;28;20053;-82
2022/08/27 05:49:44;;;;;;;6.07;1.40;;;;;;;15.97;100.00;101616.53;10362171;28;20037;-81
2022/08/27 05:54:44;;;;;;;4.47;1.15;;;;;;;16.25;100.00;101626.34;10361666;28;20034;-81
2022/08/27 06:05:04;;;;;;;8.52;1.33;;;;;;;16.78;100.00;101615.00;10404512;28;20068;-81
2022/08/27 06:10:06;;;;;;;5.10;1.38;;;;;;;16.89;100.00;101594.47;10418744;28;20125;-81
2022/08/27 06:15:07;;;;;;;3.50;1.15;;;;;;;17.14;100.00;101604.72;10385967;28;20029;-80
2022/08/27 06:20:09;;;;;;;6.50;1.30;;;;;;;17.35;100.00;101611.09;10400102;28;20128;-81
2022/08/27 06:25:10;;;;;;;6.45;1.27;;;;;;;17.55;100.00;101611.03;10386304;28;20088;-80
2022/08/27 06:30:11;;;;;;;9.63;1.60;;;;;;;17.80;100.00;101617.63;10385404;28;20037;-80
2022/08/27 06:35:11;;;;;;;7.43;1.30;;;;;;;17.95;100.00;101609.22;10385064;28;20029;-81
2022/08/27 06:40:12;;;;;;;4.78;1.10;;;;;;;18.24;100.00;101616.84;10400635;28;20045;-80
2022/08/27 06:45:13;;;;;;;6.93;1.40;;;;;;;18.50;100.00;101605.53;10356599;28;20109;-80
2022/08/27 06:50:14;;;;;;;7.07;1.35;;;;;;;18.80;100.00;101624.00;10333341;28;20041;-80
2022/08/27 06:55:15;;;;;;;6.50;1.42;;;;;;;18.83;100.00;101633.75;10378163;28;20068;-78
2022/08/27 07:00:15;;;;;;;4.78;1.15;;;;;;;18.66;100.00;101629.38;10376352;28;20462;-79
2022/08/27 07:05:17;;;;;;;8.57;2.15;;;;;;;18.72;100.00;101633.78;10351677;28;20368;-80
2022/08/27 07:10:18;;;;;;;6.75;1.73;;;;;;;18.93;100.00;101628.09;10358974;28;20498;-80
2022/08/27 07:15:19;;;;;;;8.57;1.20;;;;;;;19.07;100.00;101617.91;10397752;28;20117;-77
2022/08/27 07:20:19;;;;;;;3.88;0.93;;;;;;;19.46;100.00;101644.06;10418390;28;20057;-79
2022/08/27 07:25:20;;;;;;;8.60;1.83;;;;;;;19.86;100.00;101634.38;10366907;28;20043;-80
2022/08/27 07:30:20;;;;;;;7.10;1.52;;;;;;;20.16;100.00;101627.56;10400168;28;20033;-82
2022/08/27 07:35:21;;;;;;;7.40;1.63;;;;;;;20.12;100.00;101642.44;10396606;28;20042;-79
2022/08/27 07:40:21;;;;;;;6.30;1.15;;;;;;;20.08;100.00;101635.78;10423151;28;20056;-80
2022/08/27 07:45:22;;;;;;;9.25;1.23;;;;;;;19.87;100.00;101646.41;10399321;28;20125;-78
2022/08/27 07:50:22;;;;;;;7.03;1.05;;;;;;;19.67;100.00;101633.47;10418566;28;20080;-78
2022/08/27 07:55:23;;;;;;;7.13;1.25;;;;;;;19.73;100.00;101640.69;10367929;28;20040;-76
2022/08/27 08:00:23;;;;;;;4.32;1.10;;;;;;;20.13;100.00;101639.34;10406803;28;20071;-78
2022/08/27 08:05:24;;;;;;;4.47;1.23;;;;;;;20.68;100.00;101644.44;10379542;28;20038;-75
2022/08/27 08:10:25;;;;;;;5.85;1.20;;;;;;;20.76;100.00;101638.16;10358723;28;20045;-74
2022/08/27 08:15:25;;;;;;;7.38;1.30;;;;;;;20.84;98.96;101636.63;10368841;28;20441;-74
2022/08/27 08:20:25;;;;;;;6.57;1.30;;;;;;;20.85;100.00;101640.25;10371656;28;20042;-73
2022/08/27 08:25:26;;;;;;;8.75;2.05;;;;;;;20.48;98.02;101636.31;10372777;28;20030;-74
2022/08/27 08:30:26;;;;;;;6.90;1.15;;;;;;;20.79;99.29;101645.09;10369615;28;20034;-73
2022/08/27 08:35:27;;;;;;;4.80;1.08;;;;;;;21.17;96.84;101647.81;10371464;28;20042;-73
2022/08/27 08:40:31;;;;;;;6.38;1.25;;;;;;;20.82;99.23;101649.28;10370634;28;20121;-76
2022/08/27 08:45:33;;;;;;;13.30;2.28;;;;;;;20.47;99.57;101637.47;10370646;28;20440;-73
2022/08/27 08:50:43;;;;;;;9.15;1.65;;;;;;;20.44;100.00;101669.66;10355243;28;20038;-73
2022/08/27 08:55:48;;;;;;;6.72;1.23;;;;;;;20.56;100.00;101656.03;10407283;28;20560;-74
2022/08/27 09:00:55;;;;;;;6.80;1.52;;;;;;;20.76;99.94;101652.13;10416558;28;20045;-73
2022/08/27 09:06:09;;;;;;;4.55;1.00;;;;;;;21.06;95.96;101661.16;10452419;28;20037;-76
2022/08/27 09:11:28;;;;;;;7.80;1.30;;;;;;;21.52;96.60;101676.34;10435824;28;20052;-74
2022/08/27 09:16:31;;;;;;;7.80;2.00;;;;;;;22.30;92.63;101649.25;10456626;28;20099;-74
2022/08/27 09:21:43;;;;;;;6.13;1.10;;;;;;;22.47;89.05;101658.94;10442588;28;20058;-74
2022/08/27 09:26:44;;;;;;;9.55;1.27;;;;;;;22.17;90.63;101667.72;10442688;28;20049;-73
2022/08/27 09:31:58;;;;;;;5.13;0.90;;;;;;;21.98;88.96;101675.44;10427573;28;20147;-74
2022/08/27 09:37:23;;;;;;;7.07;1.15;;;;;;;21.77;89.35;101681.44;10422350;28;20041;-73
2022/08/27 09:42:45;;;;;;;6.18;1.10;;;;;;;21.46;89.87;101670.00;10425447;28;20043;-72
2022/08/27 09:47:52;;;;;;;6.43;1.35;;;;;;;21.90;86.06;101665.75;10438104;28;20033;-74
2022/08/27 09:52:55;;;;;;;8.25;1.40;;;;;;;22.56;87.23;101662.66;10438454;28;20041;-73
2022/08/27 09:57:56;;;;;;;8.40;1.98;;;;;;;22.27;87.32;101658.28;10391735;28;20048;-75
2022/08/27 10:02:58;;;;;;;6.32;1.30;;;;;;;21.82;87.00;101683.31;10380138;28;20037;-74
2022/08/27 10:08:01;;;;;;;10.00;1.70;;;;;;;21.41;89.26;101691.63;10399036;28;20497;-73
2022/08/27 10:13:14;;;;;;;5.13;1.23;;;;;;;20.92;91.06;101682.69;10427607;28;20109;-72
2022/08/27 10:18:18;;;;;;;4.57;1.20;;;;;;;20.89;93.45;101683.28;10416693;28;20037;-73
2022/08/27 10:23:36;;;;;;;6.93;1.58;;;;;;;21.08;91.16;101674.84;10417831;28;20053;-74
2022/08/27 10:29:12;;;;;;;7.30;1.20;;;;;;;21.54;90.94;101683.28;10403010;28;20037;-74
2022/08/27 10:34:27;;;;;;;6.43;1.20;;;;;;;21.65;87.58;101689.53;10428779;28;20033;-74
2022/08/27 10:39:52;;;;;;;13.10;1.80;;;;;;;21.55;87.26;101684.13;10440408;28;20048;-74
2022/08/27 10:45:03;;;;;;;5.38;1.05;;;;;;;21.33;86.88;101652.00;10437476;28;20064;-73
2022/08/27 10:50:16;;;;;;;5.93;1.75;;;;;;;21.52;85.23;101674.38;10436717;28;20037;-74
2022/08/27 10:55:32;;;;;;;9.77;1.33;;;;;;;21.60;86.06;101694.41;10438075;28;20045;-75
2022/08/27 11:00:50;;;;;;;5.75;1.35;;;;;;;21.45;83.59;101631.91;10437905;28;20052;-73
2022/08/27 11:05:50;;;;;;;9.02;2.55;;;;;;;22.20;81.63;101659.81;10403322;28;20080;-73
2022/08/27 11:10:55;;;;;;;7.13;1.40;;;;;;;22.66;76.72;101639.97;10425041;28;20033;-73
2022/08/27 11:15:56;;;;;;;4.60;1.40;;;;;;;23.04;77.46;101631.19;10361366;28;20048;-74
2022/08/27 11:20:59;;;;;;;3.63;1.58;;;;;;;23.43;77.17;101646.44;10351190;28;20515;-73
2022/08/27 11:26:00;;;;;;;7.30;1.05;;;;;;;23.05;78.47;101662.91;10430800;28;20091;-73
2022/08/27 11:31:18;;;;;;;3.67;0.70;;;;;;;22.71;80.41;101659.50;10416352;28;20042;-74
2022/08/27 11:36:21;;;;;;;5.80;1.35;;;;;;;22.67;79.83;101666.88;10415969;28;20121;-73
2022/08/27 11:41:50;;;;;;;7.40;1.48;;;;;;;22.77;78.37;101665.81;10416148;28;20138;-73
2022/08/27 11:46:54;;;;;;;7.78;0.82;;;;;;;23.76;75.72;101640.47;10417300;28;20049;-73
2022/08/27 11:52:00;;;;;;;4.93;1.13;;;;;;;23.40;74.83;101657.50;10399098;28;20060;-74
2022/08/27 11:57:01;;;;;;;4.38;0.85;;;;;;;23.48;75.25;101649.13;10398727;28;20029;-85
2022/08/27 12:02:25;;;;;;;4.28;0.90;;;;;;;24.11;73.12;101649.84;10381660;28;20037;-77
2022/08/27 12:07:29;;;;;;;8.48;1.60;;;;;;;23.71;73.63;101657.47;10400786;28;20049;-77
2022/08/27 12:12:29;;;;;;;3.60;1.63;;;;;;;24.48;71.34;101652.41;10406445;28;20443;-85
2022/08/27 12:18:15;;;;;;;4.38;1.20;;;;;;;25.45;66.47;101629.41;10438931;28;20037;-80
2022/08/27 12:23:45;;;;;;;8.35;1.20;;;;;;;26.23;66.05;101619.72;10385254;28;20049;-78
2022/08/27 12:28:46;;;;;;;5.00;0.90;;;;;;;25.49;65.07;101602.22;10399675;28;20124;-79
2022/08/27 12:33:48;;;;;;;4.47;0.70;;;;;;;25.81;65.37;101630.91;10388690;28;20037;-78
2022/08/27 12:38:52;;;;;;;3.83;1.23;;;;;;;26.72;60.37;101591.75;10414309;28;20093;-81
2022/08/27 12:44:12;;;;;;;3.58;1.17;;;;;;;26.14;62.51;101600.00;10372404;28;20049;-76
2022/08/27 12:49:15;;;;;;;3.33;0.90;;;;;;;25.60;63.22;101596.19;10368056;28;20037;-79
2022/08/27 12:54:41;;;;;;;6.10;1.00;;;;;;;26.49;59.71;101604.56;10379001;28;20045;-78
2022/08/27 12:59:45;;;;;;;7.18;0.98;;;;;;;27.00;61.06;101608.09;10414777;28;20132;-77
2022/08/27 13:04:46;;;;;;;4.78;0.85;;;;;;;27.58;57.07;101583.47;10415209;28;20030;-72
2022/08/27 13:09:47;;;;;;;5.13;1.17;;;;;;;27.66;58.51;101600.66;10396778;28;20041;-73
2022/08/27 13:14:47;;;;;;;6.53;0.95;;;;;;;26.98;57.93;101605.63;10413294;28;20038;-77
2022/08/27 13:19:57;;;;;;;11.75;1.13;;;;;;;26.43;60.52;101622.88;10395863;28;20488;-81
2022/08/27 13:25:01;;;;;;;8.45;1.00;;;;;;;26.44;61.76;101624.53;10354369;28;20456;-77
2022/08/27 13:30:05;;;;;;;8.98;1.45;;;;;;;26.33;62.00;101632.59;10373091;28;20034;-79
2022/08/27 13:35:06;;;;;;;2.92;0.75;;;;;;;27.62;58.81;101616.69;10395364;28;20049;-76
2022/08/27 13:40:07;;;;;;;8.95;1.48;;;;;;;27.48;58.34;101561.31;10412554;28;20044;-82
2022/08/27 13:45:08;;;;;;;7.68;1.27;;;;;;;26.25;60.79;101633.47;10411167;28;20038;-78
2022/08/27 13:50:19;;;;;;;4.18;0.98;;;;;;;24.05;65.70;101636.28;10395429;28;20049;-76
2022/08/27 13:55:19;;;;;;;4.10;0.80;;;;;;;24.10;66.84;101645.41;10396815;28;20072;-77
2022/08/27 14:00:27;;;;;;;3.20;0.90;;;;;;;23.84;67.92;101650.13;10363752;28;20030;-75
2022/08/27 14:05:30;;;;;;;7.28;0.90;;;;;;;24.80;66.41;101650.25;10415898;28;20045;-76
2022/08/27 14:10:31;;;;;;;4.57;1.40;;;;;;;25.45;63.42;101635.06;10417860;28;20034;-77
2022/08/27 14:15:37;;;;;;;3.55;0.95;;;;;;;25.13;63.54;101628.81;10417433;28;20091;-79
2022/08/27 14:20:37;;;;;;;8.70;1.52;;;;;;;25.25;64.34;101653.53;10387157;28;20038;-75
2022/08/27 14:25:39;;;;;;;7.60;1.25;;;;;;;24.59;65.69;101650.91;10367503;28;20402;-75
2022/08/27 14:30:39;;;;;;;6.80;1.52;;;;;;;24.58;64.42;101657.72;10377524;28;20033;-76
2022/08/27 14:35:40;;;;;;;9.02;1.52;;;;;;;24.07;68.22;101648.03;10377626;28;20034;-77
2022/08/27 14:40:41;;;;;;;10.18;1.30;;;;;;;23.88;66.73;101637.88;10400918;28;20095;-75
2022/08/27 14:45:42;;;;;;;8.82;1.63;;;;;;;23.21;70.03;101683.00;10417659;28;20100;-77
2022/08/27 14:50:42;;;;;;;8.15;1.50;;;;;;;22.58;70.81;101682.00;10385786;28;20473;-75
2022/08/27 14:55:43;;;;;;;6.40;1.33;;;;;;;21.98;72.59;101680.22;10415910;28;20046;-75
2022/08/27 15:00:43;;;;;;;9.27;1.77;;;;;;;23.21;70.91;101666.16;10416529;28;20057;-77
2022/08/27 15:05:44;;;;;;;8.48;1.20;;;;;;;24.46;66.89;101663.97;10400602;28;20037;-77
2022/08/27 15:10:44;;;;;;;6.72;1.38;;;;;;;23.90;66.96;101663.69;10400503;28;20074;-75
2022/08/27 15:15:45;;;;;;;10.27;1.17;;;;;;;22.90;69.50;101655.66;10416869;28;20049;-74
2022/08/27 15:20:45;;;;;;;4.43;1.27;;;;;;;24.44;65.57;101659.84;10379785;28;20057;-76
2022/08/27 15:25:46;;;;;;;3.35;0.82;;;;;;;23.88;65.68;101660.38;10375736;28;20025;-75
2022/08/27 15:30:46;;;;;;;7.05;2.28;;;;;;;23.82;66.21;101670.13;10375090;28;20026;-79
2022/08/27 15:35:47;;;;;;;10.50;1.15;;;;;;;22.83;69.93;101677.75;10374925;28;20041;-75
2022/08/27 15:40:47;;;;;;;7.82;1.50;;;;;;;21.37;76.05;101666.22;10374434;28;20088;-73
2022/08/27 15:45:48;;;;;;;11.40;1.95;;;;;;;21.26;78.54;101729.16;10356439;28;20401;-76
2022/08/27 15:50:48;;;;;;;7.22;1.85;;;;;;;20.92;80.11;101724.69;10358638;28;20401;-71
2022/08/27 15:55:49;;;;;;;11.55;1.35;;;;;;;20.72;80.38;101717.41;10393831;28;20551;-75
2022/08/27 16:00:49;;;;;;;5.40;1.30;;;;;;;20.94;79.20;101736.41;10412848;28;20433;-75
2022/08/27 16:05:50;;;;;;;6.43;1.85;;;;;;;21.12;77.15;101721.53;10381328;28;20122;-76
2022/08/27 16:10:50;;;;;;;5.00;1.40;;;;;;;22.02;73.09;101712.09;10396667;28;20038;-76
2022/08/27 16:15:51;;;;;;;6.15;1.40;;;;;;;21.70;72.15;101713.81;10411695;28;20040;-76
2022/08/27 16:20:53;;;;;;;7.85;2.10;;;;;;;20.88;76.40;101715.22;10386625;28;20042;-76
2022/08/27 16:25:53;;;;;;;9.27;2.33;;;;;;;20.54;79.96;101730.22;10356627;28;20033;-78
2022/08/27 16:30:54;;;;;;;11.10;2.60;;;;;;;20.19;83.35;101748.31;10357036;28;20050;-75
2022/08/27 16:35:54;;;;;;;8.93;2.72;;;;;;;19.71;84.49;101677.31;10340728;28;20513;-84
2022/08/27 16:40:55;;;;;;;9.68;3.08;;;;;;;20.06;82.77;101755.44;10355346;28;20042;-72
2022/08/27 16:45:57;;;;;;;13.45;3.22;;;;;;;19.92;83.27;101742.16;10340065;28;20065;-79
2022/08/27 16:50:57;;;;;;;11.45;3.40;;;;;;;19.68;84.55;101738.50;10324693;28;20030;-74
2022/08/27 16:55:59;;;;;;;9.60;3.45;;;;;;;19.35;85.37;101766.19;10351396;28;20041;-79
2022/08/27 17:01:05;;;;;;;11.00;3.35;;;;;;;19.14;87.39;101763.56;10337854;28;20108;-83
2022/08/27 17:06:05;;;;;;;11.33;3.57;;;;;;;18.94;87.78;101756.16;10355872;28;20045;-81
2022/08/27 17:11:06;;;;;;;8.15;3.60;;;;;;;19.00;86.43;101756.13;10355745;28;20304;-82
2022/08/27 17:16:07;;;;;;;10.52;3.22;;;;;;;18.89;89.75;101745.03;10371043;28;20287;-81
2022/08/27 17:21:07;;;;;;;12.45;3.53;;;;;;;18.79;89.16;101727.50;10396030;28;20044;-82
2022/08/27 17:26:09;;;;;;;18.60;5.00;;;;;;;18.76;89.18;101742.84;10405935;28;20033;-85
2022/08/27 17:31:12;;;;;;;9.98;3.65;;;;;;;18.50;89.34;101744.94;10412004;28;20044;-81
2022/08/27 17:36:13;;;;;;;7.78;3.10;;;;;;;18.40;91.69;101758.94;10411737;28;20089;-81
2022/08/27 17:41:23;;;;;;;8.02;3.00;;;;;;;18.38;94.32;101781.53;10399076;28;20057;-81
2022/08/27 17:46:24;;;;;;;16.17;4.40;;;;;;;18.09;95.84;101737.59;10403553;28;20045;-81
2022/08/27 17:51:24;;;;;;;9.20;4.07;;;;;;;18.14;97.99;101770.19;10402559;28;20583;-78
2022/08/27 17:56:25;;;;;;;13.18;4.15;;;;;;;18.18;95.78;101785.22;10401643;28;20068;-80
2022/08/27 18:01:30;;;;;;;9.00;2.88;;;;;;;18.12;95.72;101789.13;10402100;28;20049;-86
2022/08/27 18:06:30;;;;;;;11.63;3.65;;;;;;;17.99;97.48;101776.66;10399936;28;20996;-82
2022/08/27 18:11:31;;;;;;;10.80;3.97;;;;;;;17.93;100.00;101792.53;10401632;28;20064;-78
2022/08/27 18:16:32;;;;;;;51.70;6.47;;;;;;;17.78;100.00;101783.31;10398115;28;20124;-76
2022/08/27 18:21:32;;;;;;;21.35;4.25;;;;;;;17.77;100.00;101793.63;10403981;28;20037;-77
2022/08/27 18:26:33;;;;;;;11.73;3.75;;;;;;;17.77;100.00;101798.38;10405673;28;20029;-86
2022/08/27 18:31:33;;;;;;;13.73;4.13;;;;;;;17.59;100.00;101791.41;10404214;28;20049;-90
2022/08/27 18:36:34;;;;;;;13.90;3.05;;;;;;;17.43;100.00;101791.44;10374652;28;20038;-88
2022/08/27 18:41:34;;;;;;;10.75;4.00;;;;;;;17.22;100.00;101789.75;10387142;28;20045;-83
2022/08/27 18:46:35;;;;;;;11.07;3.42;;;;;;;17.21;100.00;101804.78;10391224;28;20080;-88
2022/08/27 18:51:36;;;;;;;10.52;3.55;;;;;;;17.10;100.00;101813.13;10382062;28;20030;-87
2022/08/27 18:56:36;;;;;;;15.25;3.70;;;;;;;17.09;100.00;101813.38;10387833;28;20294;-87
2022/08/27 19:01:37;;;;;;;11.10;3.13;;;;;;;16.91;100.00;101811.97;10384268;28;20052;-87
2022/08/27 19:06:37;;;;;;;10.23;3.42;;;;;;;16.87;100.00;101821.97;10399573;28;20033;-87
2022/08/27 19:11:39;;;;;;;10.85;3.40;;;;;;;16.88;100.00;101826.41;10381806;28;20052;-86
2022/08/27 19:16:49;;;;;;;13.55;3.58;;;;;;;16.87;100.00;101816.41;10344631;28;20439;-84
2022/08/27 19:21:49;;;;;;;12.38;2.75;;;;;;;16.90;100.00;101805.56;10405212;28;20065;-86
2022/08/27 19:26:50;;;;;;;8.48;2.28;;;;;;;17.02;100.00;101824.78;10407073;28;20041;-92
2022/08/27 19:31:50;;;;;;;9.80;2.72;;;;;;;16.96;100.00;101837.00;10411899;28;20485;-91
2022/08/27 19:36:52;;;;;;;11.45;2.63;;;;;;;16.83;100.00;101834.75;10384827;28;20409;-89
2022/08/27 19:41:52;;;;;;;15.10;3.00;;;;;;;16.76;100.00;101832.16;10427917;28;20072;-82
2022/08/27 19:46:54;;;;;;;10.93;3.05;;;;;;;16.82;100.00;101830.28;10375657;28;20164;-92
2022/08/27 19:51:55;;;;;;;6.93;2.75;;;;;;;16.99;100.00;101858.72;10405105;28;20425;-90
2022/08/27 19:56:55;;;;;;;8.25;2.95;;;;;;;16.71;100.00;101816.31;10380422;28;20041;-92
2022/08/27 20:01:56;;;;;;;10.73;2.10;;;;;;;16.84;100.00;101855.88;10412559;28;20037;-91
2022/08/27 20:06:57;;;;;;;11.45;3.15;;;;;;;16.58;100.00;101827.09;10425960;28;20957;-90
2022/08/27 20:11:58;;;;;;;8.13;2.33;;;;;;;16.50;100.00;101847.94;10417176;28;20037;-89
2022/08/27 20:16:58;;;;;;;8.63;2.78;;;;;;;16.51;100.00;101842.06;10392787;28;20584;-90
2022/08/27 20:21:59;;;;;;;22.50;2.97;;;;;;;16.58;100.00;101836.28;10383764;28;20046;-88
2022/08/27 20:27:00;;;;;;;6.75;2.15;;;;;;;16.73;100.00;101850.25;10395963;28;20079;-88
2022/08/27 20:32:01;;;;;;;9.70;2.25;;;;;;;16.60;100.00;101817.41;10374022;28;20071;-88
2022/08/27 20:37:02;;;;;;;10.43;2.25;;;;;;;16.72;100.00;101853.28;10391757;28;20032;-89
2022/08/27 20:42:04;;;;;;;12.25;2.25;;;;;;;16.55;100.00;101836.81;10387113;28;20060;-89
2022/08/27 20:47:05;;;;;;;9.63;2.42;;;;;;;16.60;100.00;101831.31;10376173;28;20424;-88
2022/08/27 20:52:07;;;;;;;13.93;2.60;;;;;;;16.87;100.00;101860.91;10395576;28;20041;-88
2022/08/27 20:57:08;;;;;;;9.85;3.53;;;;;;;16.79;100.00;101853.06;10390246;28;20038;-88
2022/08/27 21:02:09;;;;;;;13.15;2.95;;;;;;;16.75;100.00;101859.16;10371632;28;20041;-89
2022/08/27 21:07:10;;;;;;;16.38;3.17;;;;;;;16.65;100.00;101836.88;10382813;28;20038;-88
2022/08/27 21:12:11;;;;;;;9.52;2.20;;;;;;;16.69;100.00;101846.34;10378359;28;20037;-89
2022/08/27 21:17:11;;;;;;;8.70;2.70;;;;;;;16.59;100.00;101831.56;10394215;28;20437;-87
2022/08/27 21:22:12;;;;;;;10.55;2.20;;;;;;;16.62;100.00;101854.09;10391741;28;20067;-81
2022/08/27 21:27:13;;;;;;;9.50;1.95;;;;;;;16.33;100.00;101826.72;10394495;28;20474;-87
2022/08/27 21:32:14;;;;;;;9.25;2.33;;;;;;;16.39;100.00;101835.06;10387914;28;20030;-89
2022/08/27 21:37:15;;;;;;;9.35;2.03;;;;;;;16.53;100.00;101841.81;10381481;28;20033;-87
2022/08/27 21:42:16;;;;;;;8.95;2.05;;;;;;;16.66;100.00;101848.81;10418975;28;20412;-88
2022/08/27 21:47:17;;;;;;;11.65;2.15;;;;;;;16.69;100.00;101848.28;10412746;28;20049;-89
2022/08/27 21:52:18;;;;;;;7.60;1.90;;;;;;;16.77;100.00;101852.50;10397874;28;20060;-87
2022/08/27 21:57:18;;;;;;;6.20;1.90;;;;;;;16.75;100.00;101848.03;10362639;28;20070;-86
2022/08/27 22:02:19;;;;;;;13.50;2.45;;;;;;;16.57;100.00;101834.59;10341251;28;20056;-85
2022/08/27 22:07:21;;;;;;;6.55;1.80;;;;;;;16.34;100.00;101828.38;10355955;28;20041;-84
2022/08/27 22:12:21;;;;;;;7.75;1.88;;;;;;;16.08;100.00;101827.41;10344567;28;20049;-87
2022/08/27 22:17:22;;;;;;;7.82;1.70;;;;;;;16.03;100.00;101862.66;10394723;28;20121;-85
2022/08/27 22:22:22;;;;;;;13.65;2.35;;;;;;;15.56;100.00;101807.84;10410938;28;20043;-83
2022/08/27 22:27:23;;;;;;;10.25;2.30;;;;;;;15.72;100.00;101860.47;10389755;28;20045;-85
2022/08/27 22:32:24;;;;;;;9.35;2.30;;;;;;;15.86;100.00;101858.09;10400424;28;20037;-86
2022/08/27 22:37:24;;;;;;;6.70;1.90;;;;;;;15.92;100.00;101857.03;10383763;28;20049;-86
2022/08/27 22:42:25;;;;;;;3.88;1.63;;;;;;;15.72;100.00;101796.63;10381688;28;20072;-85
2022/08/27 22:47:25;;;;;;;10.70;2.22;;;;;;;16.02;100.00;101849.84;10393782;28;20049;-85
2022/08/27 22:52:26;;;;;;;9.15;2.15;;;;;;;15.84;100.00;101845.56;10387082;28;20042;-85
2022/08/27 22:57:26;;;;;;;9.60;2.15;;;;;;;15.77;100.00;101868.00;10394526;28;20470;-86
2022/08/27 23:02:27;;;;;;;6.43;1.73;;;;;;;15.45;100.00;101854.94;10376920;28;20120;-85
2022/08/27 23:07:28;;;;;;;7.53;2.28;;;;;;;15.28;100.00;101857.00;10384083;28;20099;-85